createdAt,value
2018-05-01T00:00:26.803Z,4.87
2018-05-01T00:02:54.898Z,4.10
2018-05-01T00:05:23.014Z,5.30
2018-05-01T00:07:51.136Z,5.10
2018-05-01T00:10:19.233Z,5.10
2018-05-01T00:12:47.342Z,4.27
2018-05-01T00:15:15.455Z,4.70
2018-05-01T00:17:43.538Z,3.93
2018-05-01T00:20:11.646Z,4.10
2018-05-01T00:22:39.734Z,4.20
2018-05-01T00:25:07.833Z,4.50
2018-05-01T00:27:35.938Z,4.50
2018-05-01T00:30:04.043Z,4.73
2018-05-01T00:32:32.915Z,3.90
2018-05-01T00:35:01.003Z,4.60
2018-05-01T00:37:29.859Z,3.43
2018-05-01T00:39:57.952Z,4.33
2018-05-01T00:42:26.066Z,4.00
2018-05-01T00:44:54.555Z,4.10
2018-05-01T00:47:22.653Z,3.27
2018-05-01T00:49:50.754Z,3.80
2018-05-01T00:52:30.765Z,3.73
2018-05-01T00:54:59.002Z,2.97
2018-05-01T00:57:27.102Z,3.53
2018-05-01T00:59:55.206Z,3.57
2018-05-01T01:02:23.286Z,3.50
2018-05-01T01:04:51.447Z,3.37
2018-05-01T01:07:19.720Z,2.57
2018-05-01T01:09:52.110Z,2.93
2018-05-01T01:12:20.214Z,2.43
2018-05-01T01:14:49.106Z,2.13
2018-05-01T01:17:17.204Z,2.20
2018-05-01T01:19:45.371Z,1.57
2018-05-01T01:22:13.394Z,3.20
2018-05-01T01:24:41.483Z,1.77
2018-05-01T01:27:09.585Z,0.97
2018-05-01T01:29:37.690Z,0.80
2018-05-01T01:32:14.530Z,1.20
2018-05-01T01:34:42.629Z,0.90
2018-05-01T01:37:10.266Z,0.63
2018-05-01T01:39:37.878Z,1.00
2018-05-01T01:42:05.488Z,0.73
2018-05-01T01:44:33.090Z,0.73
2018-05-01T01:47:00.714Z,0.50
2018-05-01T01:49:28.331Z,0.50
2018-05-01T01:51:55.937Z,0.50
2018-05-01T01:54:23.537Z,0.50
2018-05-01T01:56:51.148Z,0.67
2018-05-01T01:59:18.746Z,0.37
2018-05-01T02:01:46.373Z,0.43
2018-05-01T02:04:14.002Z,0.17
2018-05-01T02:06:41.598Z,0.50
2018-05-01T02:09:09.224Z,0.20
2018-05-01T02:11:36.825Z,0.30
2018-05-01T02:14:04.440Z,0.50
2018-05-01T02:16:32.051Z,0.30
2018-05-01T02:18:59.673Z,0.10
2018-05-01T02:21:27.281Z,0.30
2018-05-01T02:23:54.882Z,0.20
2018-05-01T02:26:23.250Z,0.10
2018-05-01T02:28:51.618Z,0.30
2018-05-01T02:31:19.294Z,0.27
2018-05-01T02:33:47.652Z,0.57
2018-05-01T02:36:15.275Z,0.37
2018-05-01T02:38:42.880Z,0.20
2018-05-01T02:41:10.558Z,0.20
2018-05-01T02:43:38.115Z,0.10
2018-05-01T02:46:05.728Z,0.50
2018-05-01T02:48:33.339Z,0.10
2018-05-01T02:51:00.948Z,0.20
2018-05-01T02:53:28.552Z,0.20
2018-05-01T02:55:56.150Z,0.10
2018-05-01T02:58:23.768Z,0.40
2018-05-01T03:00:51.392Z,0.20
2018-05-01T03:03:18.999Z,0.13
2018-05-01T03:05:46.616Z,0.10
2018-05-01T03:08:14.234Z,0.27
2018-05-01T03:10:41.871Z,0.20
2018-05-01T03:13:10.252Z,0.10
2018-05-01T03:15:38.623Z,0.13
2018-05-01T03:18:06.240Z,0.10
2018-05-01T03:20:33.851Z,0.30
2018-05-01T03:23:01.478Z,0.00
2018-05-01T03:25:29.083Z,0.20
2018-05-01T03:27:56.693Z,0.10
2018-05-01T03:30:24.291Z,0.20
2018-05-01T03:32:51.907Z,0.17
2018-05-01T03:35:19.515Z,0.20
2018-05-01T03:37:47.126Z,0.30
2018-05-01T03:40:14.744Z,0.00
2018-05-01T03:42:42.359Z,0.30
2018-05-01T03:45:10.739Z,0.50
2018-05-01T03:47:39.112Z,0.50
2018-05-01T03:50:06.724Z,0.40
2018-05-01T03:52:34.328Z,0.50
2018-05-01T03:55:01.942Z,0.30
2018-05-01T03:57:29.556Z,0.10
2018-05-01T03:59:57.159Z,0.30
2018-05-01T04:02:24.783Z,0.37
2018-05-01T04:04:52.408Z,0.30
2018-05-01T04:07:20.013Z,0.20
2018-05-01T04:09:47.607Z,0.33
2018-05-01T04:12:15.239Z,0.40
2018-05-01T04:14:42.858Z,0.10
2018-05-01T04:17:10.483Z,0.40
2018-05-01T04:19:38.100Z,0.40
2018-05-01T04:22:05.715Z,0.53
2018-05-01T04:24:33.327Z,0.43
2018-05-01T04:27:00.955Z,0.43
2018-05-01T04:29:29.327Z,0.30
2018-05-01T04:31:56.955Z,0.33
2018-05-01T04:34:24.563Z,0.40
2018-05-01T04:36:52.166Z,0.40
2018-05-01T04:39:19.795Z,0.40
2018-05-01T04:41:47.415Z,0.20
2018-05-01T04:44:15.044Z,0.43
2018-05-01T04:46:43.407Z,0.40
2018-05-01T04:49:11.023Z,0.87
2018-05-01T04:51:38.645Z,0.50
2018-05-01T04:54:06.251Z,0.77
2018-05-01T04:56:33.871Z,0.33
2018-05-01T04:59:01.464Z,0.40
2018-05-01T05:01:29.071Z,0.33
2018-05-01T05:03:56.669Z,0.70
2018-05-01T05:06:24.275Z,0.30
2018-05-01T05:08:51.895Z,0.40
2018-05-01T05:11:19.511Z,0.50
2018-05-01T05:13:47.148Z,0.67
2018-05-01T05:16:14.759Z,0.83
2018-05-01T05:18:42.391Z,0.70
2018-05-01T05:21:10.326Z,0.70
2018-05-01T05:23:37.940Z,0.70
2018-05-01T05:26:05.555Z,0.70
2018-05-01T05:28:33.172Z,0.77
2018-05-01T05:31:00.779Z,0.50
2018-05-01T05:33:28.406Z,0.70
2018-05-01T05:35:56.188Z,1.00
2018-05-01T05:38:23.787Z,1.23
2018-05-01T05:40:51.408Z,0.77
2018-05-01T05:43:19.026Z,0.63
2018-05-01T05:45:46.652Z,0.80
2018-05-01T05:48:14.263Z,1.00
2018-05-01T06:02:24.861Z,1.03
2018-05-01T06:04:52.459Z,0.50
2018-05-01T06:07:20.067Z,0.97
2018-05-01T06:09:47.682Z,0.97
2018-05-01T06:12:15.313Z,0.83
2018-05-01T06:14:42.920Z,0.93
2018-05-01T06:17:10.531Z,0.53
2018-05-01T06:19:38.156Z,0.50
2018-05-01T06:22:05.922Z,0.97
2018-05-01T06:24:33.400Z,0.90
2018-05-01T06:27:01.019Z,1.27
2018-05-01T06:29:28.639Z,0.70
2018-05-01T06:31:57.039Z,0.80
2018-05-01T06:34:25.409Z,0.90
2018-05-01T06:36:53.037Z,0.80
2018-05-01T06:39:20.620Z,0.87
2018-05-01T06:41:48.229Z,0.73
2018-05-01T06:44:15.852Z,1.27
2018-05-01T06:46:43.485Z,0.83
2018-05-01T06:49:11.115Z,0.97
2018-05-01T06:51:39.489Z,0.30
2018-05-01T06:54:07.864Z,0.67
2018-05-01T06:56:36.236Z,0.90
2018-05-01T06:59:03.852Z,1.20
2018-05-01T07:01:31.464Z,1.23
2018-05-01T07:03:59.064Z,1.47
2018-05-01T07:06:26.679Z,0.73
2018-05-01T07:08:54.299Z,0.80
2018-05-01T07:11:21.917Z,1.00
2018-05-01T07:13:49.536Z,1.00
2018-05-01T07:16:17.159Z,1.27
2018-05-01T07:18:44.772Z,1.20
2018-05-01T07:21:12.414Z,0.67
2018-05-01T07:23:40.020Z,0.63
2018-05-01T07:26:07.624Z,0.90
2018-05-01T07:28:35.236Z,0.67
2018-05-01T07:31:02.851Z,1.17
2018-05-01T07:33:30.496Z,0.97
2018-05-01T07:35:58.111Z,1.00
2018-05-01T07:38:25.732Z,0.93
2018-05-01T07:40:53.340Z,1.50
2018-05-01T07:43:21.720Z,1.00
2018-05-01T07:45:50.100Z,1.00
2018-05-01T07:48:18.495Z,1.10
2018-05-01T07:50:46.113Z,0.73
2018-05-01T07:53:13.711Z,0.87
2018-05-01T07:55:42.105Z,0.90
2018-05-01T07:58:09.705Z,1.10
2018-05-01T08:00:37.307Z,0.90
2018-05-01T08:03:04.915Z,0.70
2018-05-01T08:05:32.539Z,1.17
2018-05-01T08:08:00.135Z,1.70
2018-05-01T08:10:27.763Z,1.03
2018-05-01T08:12:55.378Z,1.23
2018-05-01T08:15:22.987Z,1.03
2018-05-01T08:17:50.611Z,1.20
2018-05-01T08:20:18.225Z,1.40
2018-05-01T08:22:45.823Z,1.20
2018-05-01T08:25:13.440Z,1.23
2018-05-01T08:27:41.240Z,0.93
2018-05-01T08:30:08.845Z,1.00
2018-05-01T08:32:36.466Z,1.10
2018-05-01T08:35:04.070Z,1.03
2018-05-01T08:37:31.679Z,1.17
2018-05-01T08:39:59.304Z,1.63
2018-05-01T08:42:26.911Z,1.07
2018-05-01T08:44:54.511Z,1.07
2018-05-01T08:47:22.127Z,0.90
2018-05-01T08:49:49.740Z,1.33
2018-05-01T08:52:17.342Z,0.90
2018-05-01T08:54:44.980Z,0.53
2018-05-01T08:57:12.591Z,1.10
2018-05-01T08:59:40.207Z,0.93
2018-05-01T09:02:07.835Z,0.70
2018-05-01T09:04:35.463Z,0.93
2018-05-01T09:07:03.063Z,0.80
2018-05-01T09:09:30.730Z,1.00
2018-05-01T09:11:58.292Z,1.03
2018-05-01T09:14:25.967Z,0.80
2018-05-01T09:16:53.556Z,1.00
2018-05-01T09:19:21.173Z,1.07
2018-05-01T09:21:48.768Z,0.90
2018-05-01T09:24:16.373Z,1.07
2018-05-01T09:26:44.025Z,1.10
2018-05-01T09:29:11.642Z,1.07
2018-05-01T09:31:39.264Z,1.13
2018-05-01T09:34:06.867Z,1.80
2018-05-01T09:36:34.483Z,1.37
2018-05-01T09:39:02.113Z,0.80
2018-05-01T09:41:29.727Z,1.10
2018-05-01T09:43:57.343Z,1.03
2018-05-01T09:46:24.951Z,1.00
2018-05-01T09:48:53.345Z,1.60
2018-05-01T09:51:20.951Z,0.87
2018-05-01T09:53:49.106Z,1.27
2018-05-01T09:56:17.255Z,1.07
2018-05-01T09:58:45.364Z,1.13
2018-05-01T10:01:13.516Z,1.90
2018-05-01T10:03:41.647Z,1.30
2018-05-01T10:06:09.843Z,1.73
2018-05-01T10:08:37.953Z,1.20
2018-05-01T10:11:06.072Z,1.30
2018-05-01T10:13:34.163Z,1.87
2018-05-01T10:16:02.300Z,1.73
2018-05-01T10:18:30.393Z,1.60
2018-05-01T10:20:58.518Z,2.03
2018-05-01T10:23:29.300Z,2.70
2018-05-01T10:25:57.412Z,2.07
2018-05-01T10:28:26.031Z,1.07
2018-05-01T10:30:54.123Z,1.83
2018-05-01T10:33:22.534Z,1.93
2018-05-01T10:35:50.605Z,2.13
2018-05-01T10:38:18.736Z,2.30
2018-05-01T10:40:47.619Z,1.80
2018-05-01T10:43:16.491Z,2.23
2018-05-01T10:45:45.401Z,3.83
2018-05-01T10:48:13.656Z,2.50
2018-05-01T10:50:41.784Z,2.63
2018-05-01T10:53:10.119Z,2.30
2018-05-01T10:55:38.548Z,2.53
2018-05-01T10:58:06.742Z,2.57
2018-05-01T11:00:34.946Z,2.30
2018-05-01T11:03:02.979Z,2.53
2018-05-01T11:05:31.891Z,2.47
2018-05-01T11:07:59.995Z,3.07
2018-05-01T11:10:28.099Z,2.50
2018-05-01T11:12:56.200Z,2.20
2018-05-01T11:15:24.336Z,3.10
2018-05-01T11:17:52.736Z,2.67
2018-05-01T11:20:20.844Z,2.47
2018-05-01T11:22:49.716Z,2.63
2018-05-01T11:25:17.818Z,2.33
2018-05-01T11:27:46.676Z,3.07
2018-05-01T11:30:14.813Z,3.47
2018-05-01T11:32:42.929Z,3.70
2018-05-01T11:35:11.022Z,2.53
2018-05-01T11:37:39.912Z,3.10
2018-05-01T11:40:08.020Z,3.13
2018-05-01T11:42:36.152Z,3.63
2018-05-01T11:45:04.379Z,3.37
2018-05-01T11:47:32.418Z,2.87
2018-05-01T11:50:01.340Z,3.10
2018-05-01T11:52:29.464Z,2.67
2018-05-01T11:54:57.581Z,3.03
2018-05-01T11:57:26.487Z,2.50
2018-05-01T11:59:54.588Z,3.23
2018-05-01T12:02:22.699Z,2.47
2018-05-01T12:04:50.817Z,2.57
2018-05-01T12:07:19.264Z,3.20
2018-05-01T12:09:47.404Z,2.83
2018-05-01T12:12:15.512Z,4.00
2018-05-01T12:14:43.660Z,2.50
2018-05-01T12:17:12.580Z,2.40
2018-05-01T12:19:40.825Z,3.63
2018-05-01T12:22:08.979Z,3.13
2018-05-01T12:24:37.879Z,2.53
2018-05-01T12:27:05.981Z,3.07
2018-05-01T12:29:34.093Z,2.50
2018-05-01T12:32:02.217Z,2.63
2018-05-01T12:34:38.281Z,3.00
2018-05-01T12:37:06.573Z,2.83
2018-05-01T12:39:34.596Z,2.90
2018-05-01T12:42:03.398Z,3.23
2018-05-01T12:44:31.512Z,2.30
2018-05-01T12:46:59.631Z,2.47
2018-05-01T12:49:28.558Z,2.17
2018-05-01T12:51:56.700Z,2.57
2018-05-01T12:54:24.787Z,1.70
2018-05-01T12:56:52.896Z,3.20
2018-05-01T12:59:20.987Z,2.63
2018-05-01T13:01:49.103Z,2.60
2018-05-01T13:04:17.209Z,3.43
2018-05-01T13:06:46.138Z,1.90
2018-05-01T13:21:26.916Z,1.87
2018-05-01T13:23:56.732Z,2.80
2018-05-01T13:26:26.582Z,2.90
2018-05-01T13:28:56.415Z,2.30
2018-05-01T13:31:26.257Z,2.33
2018-05-01T13:33:56.091Z,2.10
2018-05-01T13:36:26.723Z,2.43
2018-05-01T13:38:56.550Z,2.60
2018-05-01T13:41:26.423Z,2.87
2018-05-01T13:43:56.263Z,2.60
2018-05-01T13:46:26.119Z,2.63
2018-05-01T13:48:56.014Z,2.43
2018-05-01T13:51:25.824Z,2.27
2018-05-01T13:53:55.673Z,2.70
2018-05-01T13:56:25.511Z,2.53
2018-05-01T13:58:55.391Z,2.43
2018-05-01T14:01:25.243Z,2.30
2018-05-01T14:03:55.109Z,2.60
2018-05-01T14:06:25.030Z,2.77
2018-05-01T14:08:54.823Z,2.90
2018-05-01T14:11:24.723Z,2.30
2018-05-01T14:13:54.572Z,2.47
2018-05-01T14:16:24.419Z,2.60
2018-05-01T14:18:53.932Z,2.60
2018-05-01T14:21:24.331Z,2.33
2018-05-01T14:23:54.181Z,2.90
2018-05-01T14:26:25.004Z,2.57
2018-05-01T14:28:54.857Z,2.67
2018-05-01T14:31:24.668Z,2.37
2018-05-01T14:33:56.568Z,2.10
2018-05-01T14:36:26.808Z,2.10
2018-05-01T14:38:56.805Z,2.30
2018-05-01T14:41:26.656Z,2.17
2018-05-01T14:43:56.478Z,1.80
2018-05-01T14:46:26.295Z,2.30
2018-05-01T14:48:56.127Z,2.10
2018-05-01T14:51:25.987Z,1.77
2018-05-01T14:53:55.811Z,2.13
2018-05-01T14:56:25.678Z,1.83
2018-05-01T14:58:55.495Z,2.03
2018-05-01T15:01:25.366Z,2.33
2018-05-01T15:03:54.849Z,1.70
2018-05-01T15:06:24.784Z,1.67
2018-05-01T15:08:54.707Z,1.70
2018-05-01T15:11:24.491Z,1.93
2018-05-01T15:13:54.372Z,1.97
2018-05-01T15:16:24.199Z,1.80
2018-05-01T15:18:54.034Z,1.80
2018-05-01T15:21:23.849Z,1.43
2018-05-01T15:23:53.892Z,2.17
2018-05-01T15:26:23.847Z,1.17
2018-05-01T15:28:53.992Z,1.50
2018-05-01T15:31:23.941Z,1.87
2018-05-01T15:33:53.726Z,2.00
2018-05-01T15:36:23.747Z,1.70
2018-05-01T15:38:53.563Z,1.70
2018-05-01T15:41:23.479Z,1.50
2018-05-01T15:43:54.119Z,1.50
2018-05-01T15:46:23.968Z,0.93
2018-05-01T15:48:53.852Z,1.73
2018-05-01T15:51:23.912Z,1.70
2018-05-01T15:53:54.058Z,1.33
2018-05-01T15:56:24.154Z,1.20
2018-05-01T15:58:53.965Z,1.50
2018-05-01T16:01:23.888Z,0.90
2018-05-01T16:03:53.725Z,1.50
2018-05-01T16:06:23.611Z,0.97
2018-05-01T16:08:54.622Z,1.40
2018-05-01T16:11:24.459Z,1.30
2018-05-01T16:13:54.385Z,1.33
2018-05-01T16:16:26.208Z,1.10
2018-05-01T16:18:56.140Z,1.40
2018-05-01T16:21:25.969Z,1.40
2018-05-01T16:23:55.820Z,1.77
2018-05-01T16:26:25.620Z,1.77
2018-05-01T16:28:55.474Z,1.73
2018-05-01T16:31:26.582Z,2.33
2018-05-01T16:33:56.605Z,1.83
2018-05-01T16:36:26.340Z,1.80
2018-05-01T16:38:56.183Z,1.70
2018-05-01T16:41:26.000Z,1.57
2018-05-01T16:43:55.806Z,1.60
2018-05-01T16:46:25.629Z,1.40
2018-05-01T16:48:55.544Z,1.90
2018-05-01T16:51:25.358Z,1.40
2018-05-01T16:53:55.200Z,1.90
2018-05-01T16:56:25.029Z,1.10
2018-05-01T16:58:55.315Z,1.47
2018-05-01T17:01:25.130Z,23.40
2018-05-01T17:03:55.015Z,36.37
2018-05-01T17:06:24.839Z,33.57
2018-05-01T17:08:54.692Z,114.70
2018-05-01T17:11:24.678Z,65.43
2018-05-01T17:13:54.517Z,48.00
2018-05-01T17:16:24.400Z,26.47
2018-05-01T17:18:54.220Z,28.23
2018-05-01T17:21:24.050Z,24.47
2018-05-01T17:23:53.895Z,21.70
2018-05-01T17:26:23.736Z,17.27
2018-05-01T17:28:53.558Z,17.47
2018-05-01T17:31:23.389Z,14.57
2018-05-01T17:33:53.286Z,21.23
2018-05-01T17:36:23.171Z,20.77
2018-05-01T17:38:53.096Z,8.93
2018-05-01T17:41:22.945Z,18.07
2018-05-01T17:43:52.818Z,17.33
2018-05-01T17:46:22.715Z,10.00
2018-05-01T17:48:52.701Z,17.20
2018-05-01T17:51:22.476Z,12.63
2018-05-01T17:53:52.319Z,5.63
2018-05-01T17:56:22.127Z,8.97
2018-05-01T17:58:52.039Z,13.27
2018-05-01T18:01:21.936Z,11.47
2018-05-01T18:03:51.789Z,12.03
2018-05-01T18:06:21.652Z,8.67
2018-05-01T18:08:51.501Z,9.63
2018-05-01T18:11:21.349Z,10.57
2018-05-01T18:13:51.221Z,9.13
2018-05-01T18:16:21.155Z,10.33
2018-05-01T18:18:52.836Z,10.53
2018-05-01T18:21:22.484Z,9.63
2018-05-01T18:23:52.412Z,8.20
2018-05-01T18:26:22.350Z,6.83
2018-05-01T18:28:52.180Z,8.50
2018-05-01T18:31:22.379Z,8.40
2018-05-01T18:33:52.730Z,8.37
2018-05-01T18:36:22.695Z,7.60
2018-05-01T18:38:52.753Z,7.90
2018-05-01T18:41:22.839Z,7.30
2018-05-01T18:43:52.701Z,6.97
2018-05-01T18:46:22.565Z,6.47
2018-05-01T18:48:52.515Z,6.40
2018-05-01T18:51:22.381Z,6.23
2018-05-01T18:53:52.251Z,5.87
2018-05-01T18:56:22.094Z,5.77
2018-05-01T18:58:51.977Z,6.07
2018-05-01T19:01:21.836Z,4.97
2018-05-01T19:03:51.774Z,5.13
2018-05-01T19:06:21.707Z,5.40
2018-05-01T19:08:51.623Z,4.60
2018-05-01T19:11:21.457Z,4.63
2018-05-01T19:13:51.395Z,4.67
2018-05-01T19:16:21.219Z,4.10
2018-05-01T19:18:51.442Z,4.33
2018-05-01T19:21:22.102Z,4.53
2018-05-01T19:23:52.043Z,4.17
2018-05-01T19:26:22.164Z,4.10
2018-05-01T19:28:52.131Z,3.87
2018-05-01T19:31:22.115Z,3.97
2018-05-01T19:33:52.000Z,3.53
2018-05-01T19:36:21.851Z,3.97
2018-05-01T19:38:51.339Z,3.27
2018-05-01T19:41:21.269Z,2.80
2018-05-01T19:43:50.780Z,3.27
2018-05-01T19:46:20.733Z,2.83
2018-05-01T19:48:50.610Z,3.37
2018-05-01T19:51:36.818Z,2.87
2018-05-01T19:54:06.735Z,3.10
2018-05-01T19:56:36.618Z,3.00
2018-05-01T19:59:06.388Z,2.87
2018-05-01T20:01:36.344Z,3.00
2018-05-01T20:04:06.210Z,2.60
2018-05-01T20:06:36.077Z,2.60
2018-05-01T20:09:06.073Z,2.47
2018-05-01T20:11:35.880Z,2.93
2018-05-01T20:14:05.759Z,2.47
2018-05-01T20:16:35.587Z,2.13
2018-05-01T20:19:05.444Z,2.47
2018-05-01T20:21:35.273Z,2.50
2018-05-01T20:24:05.100Z,2.63
2018-05-01T20:26:34.958Z,2.00
2018-05-01T20:29:05.216Z,2.40
2018-05-01T20:31:35.199Z,2.20
2018-05-01T20:34:05.443Z,2.27
2018-05-01T20:36:35.375Z,1.70
2018-05-01T20:39:06.331Z,2.27
2018-05-01T20:41:36.291Z,2.50
2018-05-01T20:44:06.200Z,2.10
2018-05-01T20:46:36.097Z,2.03
2018-05-01T20:49:05.992Z,2.20
2018-05-01T20:51:35.831Z,2.10
2018-05-01T20:54:05.674Z,2.13
2018-05-01T20:56:35.516Z,2.40
2018-05-01T20:59:05.535Z,2.00
2018-05-01T21:01:35.032Z,1.93
2018-05-01T21:04:04.985Z,2.50
2018-05-01T21:06:34.870Z,1.90
2018-05-01T21:09:05.527Z,2.10
2018-05-01T21:11:35.354Z,1.90
2018-05-01T21:14:05.188Z,1.90
2018-05-01T21:16:35.008Z,1.93
2018-05-01T21:19:04.901Z,2.23
2018-05-01T21:21:34.766Z,1.93
2018-05-01T21:24:04.604Z,1.57
2018-05-01T21:26:34.444Z,2.20
2018-05-01T21:29:04.306Z,2.10
2018-05-01T21:31:34.131Z,1.97
2018-05-01T21:36:58.764Z,2.00
2018-05-01T21:39:28.559Z,1.70
2018-05-01T21:41:58.427Z,1.80
2018-05-01T21:44:28.434Z,1.80
2018-05-01T21:46:59.418Z,1.97
2018-05-01T21:49:29.403Z,1.90
2018-05-01T21:51:59.276Z,2.00
2018-05-01T21:54:29.127Z,2.00
2018-05-01T21:56:59.407Z,1.87
2018-05-01T21:59:29.267Z,1.80
2018-05-01T22:01:59.140Z,1.77
2018-05-01T22:04:28.969Z,1.97
2018-05-01T22:06:58.852Z,1.93
2018-05-01T22:09:28.696Z,1.87
2018-05-01T22:11:58.683Z,1.67
2018-05-01T22:14:28.551Z,1.67
2018-05-01T22:16:58.415Z,1.67
2018-05-01T22:19:28.595Z,1.73
2018-05-01T22:21:58.460Z,1.57
2018-05-01T22:24:28.376Z,1.83
2018-05-01T22:26:58.197Z,1.93
2018-05-01T22:29:28.039Z,2.60
2018-05-01T22:31:57.935Z,2.00
2018-05-01T22:34:27.849Z,1.57
2018-05-01T22:36:57.800Z,1.60
2018-05-01T22:39:27.615Z,1.83
2018-05-01T22:41:57.463Z,1.60
2018-05-01T22:44:27.275Z,1.47
2018-05-01T22:46:57.175Z,1.63
2018-05-01T22:49:27.002Z,1.70
2018-05-01T22:51:56.850Z,1.80
2018-05-01T22:54:26.671Z,1.70
2018-05-01T22:56:56.543Z,1.70
2018-05-01T22:59:26.381Z,1.80
2018-05-01T23:01:56.214Z,1.53
2018-05-01T23:04:26.042Z,1.93
2018-05-01T23:06:55.878Z,1.60
2018-05-01T23:09:25.707Z,1.77
2018-05-01T23:11:55.614Z,1.80
2018-05-01T23:14:25.440Z,1.60
2018-05-01T23:16:55.309Z,2.07
2018-05-01T23:19:25.140Z,1.90
2018-05-01T23:21:54.962Z,1.70
2018-05-01T23:24:24.787Z,1.60
2018-05-01T23:26:54.647Z,1.50
2018-05-01T23:29:24.494Z,1.70
2018-05-01T23:31:54.341Z,1.60
2018-05-01T23:34:24.182Z,1.67
2018-05-01T23:36:54.012Z,1.70
2018-05-01T23:39:23.842Z,1.47
2018-05-01T23:41:53.697Z,1.90
2018-05-01T23:44:23.563Z,1.70
2018-05-01T23:46:53.397Z,1.60
2018-05-01T23:49:23.227Z,1.80
2018-05-01T23:51:53.075Z,1.57
2018-05-01T23:54:22.950Z,1.90
2018-05-01T23:56:52.766Z,1.50
2018-05-01T23:59:22.611Z,1.90
